createdAt,value
2017-09-22T00:01:01.504Z,100929.77
2017-09-22T00:03:33.382Z,100927.26
2017-09-22T00:06:04.763Z,100929.17
2017-09-22T00:08:37.180Z,100934.02
2017-09-22T00:11:08.259Z,100930.59
2017-09-22T00:13:39.988Z,100932.04
2017-09-22T00:16:11.183Z,100933.79
2017-09-22T00:18:42.431Z,100931.31
2017-09-22T00:21:13.821Z,100937.12
2017-09-22T00:23:44.921Z,100931.91
2017-09-22T00:26:15.988Z,100929.36
2017-09-22T00:28:47.818Z,100930.02
2017-09-22T00:31:19.256Z,100930.73
2017-09-22T00:33:50.594Z,100922.52
2017-09-22T00:36:21.731Z,100925.81
2017-09-22T00:38:52.895Z,100925.61
2017-09-22T00:41:24.267Z,100921.98
2017-09-22T00:43:55.369Z,100922.97
2017-09-22T00:46:26.509Z,100924.94
2017-09-22T00:48:57.904Z,100920.28
2017-09-22T00:51:29.020Z,100917.86
2017-09-22T00:54:00.097Z,100925.35
2017-09-22T00:56:31.504Z,100917.72
2017-09-22T00:59:03.209Z,100925.77
2017-09-22T01:01:35.088Z,100922.17
2017-09-22T01:04:06.586Z,100923.46
2017-09-22T01:06:38.608Z,100920.85
2017-09-22T01:09:09.695Z,100924.27
2017-09-22T01:11:41.263Z,100922.98
2017-09-22T01:14:12.364Z,100923.08
2017-09-22T01:16:43.683Z,100921.55
2017-09-22T01:19:14.753Z,100917.31
2017-09-22T01:21:45.897Z,100918.82
2017-09-22T01:24:16.992Z,100914.98
2017-09-22T01:26:48.381Z,100914.34
2017-09-22T01:29:19.481Z,100907.91
2017-09-22T01:31:50.901Z,100912.63
2017-09-22T01:34:22.003Z,100904.84
2017-09-22T01:36:53.357Z,100904.23
2017-09-22T01:39:24.425Z,100905.34
2017-09-22T01:41:55.618Z,100906.35
2017-09-22T01:44:26.645Z,100907.80
2017-09-22T01:46:57.705Z,100906.97
2017-09-22T01:49:30.347Z,100906.11
2017-09-22T01:52:01.931Z,100910.19
2017-09-22T01:54:33.137Z,100910.34
2017-09-22T01:57:04.804Z,100901.73
2017-09-22T01:59:37.341Z,100905.38
2017-09-22T02:02:08.765Z,100905.59
2017-09-22T02:04:40.589Z,100906.17
2017-09-22T02:07:11.827Z,100912.33
2017-09-22T02:09:43.191Z,100905.41
2017-09-22T02:12:14.545Z,100903.99
2017-09-22T02:14:45.619Z,100904.11
2017-09-22T02:17:16.753Z,100895.77
2017-09-22T02:19:48.127Z,100906.47
2017-09-22T02:22:19.235Z,100910.12
2017-09-22T02:24:50.646Z,100909.84
2017-09-22T02:27:21.767Z,100908.39
2017-09-22T02:29:52.913Z,100911.95
2017-09-22T02:32:24.660Z,100909.03
2017-09-22T02:34:55.749Z,100906.12
2017-09-22T02:37:26.829Z,100905.23
2017-09-22T02:39:58.208Z,100902.48
2017-09-22T02:42:29.268Z,100905.58
2017-09-22T02:45:00.338Z,100903.72
2017-09-22T02:47:31.706Z,100901.37
2017-09-22T02:50:03.615Z,100902.41
2017-09-22T02:52:34.996Z,100911.91
2017-09-22T02:55:06.376Z,100910.27
2017-09-22T02:57:38.545Z,100912.28
2017-09-22T03:00:09.676Z,100920.12
2017-09-22T03:02:41.183Z,100916.09
2017-09-22T03:05:12.545Z,100916.31
2017-09-22T03:07:43.639Z,100921.58
2017-09-22T03:10:14.692Z,100930.83
2017-09-22T03:12:46.051Z,100926.54
2017-09-22T03:15:17.119Z,100924.30
2017-09-22T03:17:48.183Z,100920.84
2017-09-22T03:20:19.234Z,100926.86
2017-09-22T03:22:50.588Z,100924.23
2017-09-22T03:25:21.648Z,100919.19
2017-09-22T03:27:52.688Z,100912.50
2017-09-22T03:30:24.531Z,100913.45
2017-09-22T03:32:56.028Z,100914.66
2017-09-22T03:35:27.390Z,100913.25
2017-09-22T03:37:58.533Z,100907.00
2017-09-22T03:40:29.566Z,100909.18
2017-09-22T03:43:00.608Z,100905.87
2017-09-22T03:45:31.693Z,100908.53
2017-09-22T03:48:03.562Z,100914.66
2017-09-22T03:50:35.361Z,100909.64
2017-09-22T03:53:06.745Z,100914.27
2017-09-22T03:55:39.121Z,100918.63
2017-09-22T03:58:10.186Z,100913.27
2017-09-22T04:00:42.230Z,100913.45
2017-09-22T04:03:13.745Z,100914.75
2017-09-22T04:05:45.156Z,100910.19
2017-09-22T04:08:16.228Z,100906.17
2017-09-22T04:10:47.275Z,100906.97
2017-09-22T04:13:18.696Z,100908.75
2017-09-22T04:15:49.806Z,100907.89
2017-09-22T04:18:21.162Z,100902.56
2017-09-22T04:20:52.243Z,100903.36
2017-09-22T04:23:23.327Z,100904.10
2017-09-22T04:25:54.779Z,100906.19
2017-09-22T04:28:25.849Z,100896.84
2017-09-22T04:30:56.977Z,100900.27
2017-09-22T04:33:28.388Z,100905.12
2017-09-22T04:35:59.776Z,100904.53
2017-09-22T04:38:30.947Z,100908.27
2017-09-22T04:41:02.242Z,100916.82
2017-09-22T04:43:33.365Z,100916.17
2017-09-22T04:46:05.127Z,100913.77
2017-09-22T04:48:37.825Z,100913.45
2017-09-22T04:51:08.964Z,100918.70
2017-09-22T04:53:40.494Z,100912.66
2017-09-22T04:56:11.864Z,100921.51
2017-09-22T04:58:43.372Z,100920.92
2017-09-22T05:01:14.716Z,100924.65
2017-09-22T05:03:46.118Z,100928.41
2017-09-22T05:06:17.760Z,100935.65
2017-09-22T05:08:49.165Z,100937.85
2017-09-22T05:11:20.268Z,100947.84
2017-09-22T05:13:51.391Z,100945.39
2017-09-22T05:16:22.769Z,100948.45
2017-09-22T05:18:53.846Z,100945.64
2017-09-22T05:21:25.002Z,100955.37
2017-09-22T05:23:56.456Z,100954.31
2017-09-22T05:26:29.108Z,100956.59
2017-09-22T05:29:02.627Z,100963.70
2017-09-22T05:31:34.496Z,100963.23
2017-09-22T05:34:06.161Z,100965.84
2017-09-22T05:36:40.819Z,100968.11
2017-09-22T05:39:12.372Z,100969.25
2017-09-22T05:41:44.733Z,100970.27
2017-09-22T05:44:17.062Z,100973.88
2017-09-22T05:46:48.231Z,100970.30
2017-09-22T05:49:19.666Z,100970.04
2017-09-22T05:51:51.033Z,100976.08
2017-09-22T05:54:22.805Z,100979.30
2017-09-22T05:56:54.516Z,100976.77
2017-09-22T05:59:25.628Z,100982.48
2017-09-22T06:01:56.713Z,100975.81
2017-09-22T06:04:28.256Z,100973.41
2017-09-22T06:07:00.527Z,100977.05
2017-09-22T06:09:32.083Z,100976.50
2017-09-22T06:12:04.968Z,100973.95
2017-09-22T06:14:39.101Z,100977.67
2017-09-22T06:17:10.663Z,100973.84
2017-09-22T06:19:42.190Z,100970.88
2017-09-22T06:22:13.802Z,100973.44
2017-09-22T06:24:45.520Z,100968.39
2017-09-22T06:27:17.215Z,100971.17
2017-09-22T06:29:48.659Z,100973.03
2017-09-22T06:32:21.001Z,100968.86
2017-09-22T06:34:52.608Z,100972.80
2017-09-22T06:37:28.822Z,100973.25
2017-09-22T06:40:08.294Z,100969.75
2017-09-22T06:42:40.628Z,100969.16
2017-09-22T06:45:11.797Z,100975.56
2017-09-22T06:47:43.121Z,100975.57
2017-09-22T06:50:14.491Z,100979.27
2017-09-22T06:52:45.723Z,100978.25
2017-09-22T06:55:16.831Z,100980.63
2017-09-22T06:57:48.188Z,100979.86
2017-09-22T07:00:19.408Z,100983.88
2017-09-22T07:02:50.753Z,100983.03
2017-09-22T07:05:25.369Z,100985.08
2017-09-22T07:07:56.440Z,100988.16
2017-09-22T07:10:28.232Z,100989.52
2017-09-22T07:12:59.433Z,100991.52
2017-09-22T07:15:30.498Z,100996.75
2017-09-22T07:18:02.645Z,100998.42
2017-09-22T07:20:36.063Z,101000.13
2017-09-22T07:23:07.120Z,101004.81
2017-09-22T07:25:38.196Z,101002.16
2017-09-22T07:28:09.605Z,100998.74
2017-09-22T07:30:40.650Z,100994.29
2017-09-22T07:33:11.861Z,101004.17
2017-09-22T07:35:42.964Z,101003.63
2017-09-22T07:38:14.107Z,101008.84
2017-09-22T07:40:45.186Z,101011.23
2017-09-22T07:43:17.297Z,101005.82
2017-09-22T07:45:48.404Z,101007.47
2017-09-22T07:48:20.672Z,101003.77
2017-09-22T07:50:52.168Z,101010.63
2017-09-22T07:53:25.945Z,100999.75
2017-09-22T07:55:56.983Z,101008.84
2017-09-22T07:58:28.463Z,101005.24
2017-09-22T08:00:59.548Z,101009.29
2017-09-22T08:03:30.661Z,101008.59
2017-09-22T08:06:02.955Z,101020.10
2017-09-22T08:08:34.161Z,101020.05
2017-09-22T08:11:05.256Z,101018.84
2017-09-22T08:13:36.435Z,101018.69
2017-09-22T08:16:07.509Z,101012.56
2017-09-22T08:18:38.743Z,101010.33
2017-09-22T08:21:10.166Z,101016.34
2017-09-22T08:23:41.540Z,101016.34
2017-09-22T08:26:12.599Z,101019.23
2017-09-22T08:28:45.270Z,101023.42
2017-09-22T08:31:16.322Z,101021.13
2017-09-22T08:33:47.696Z,101026.45
2017-09-22T08:36:18.776Z,101026.11
2017-09-22T08:38:49.884Z,101021.94
2017-09-22T08:41:22.860Z,101012.73
2017-09-22T08:43:54.041Z,101009.73
2017-09-22T08:46:26.766Z,101011.39
2017-09-22T08:48:57.992Z,101012.95
2017-09-22T08:51:29.518Z,101015.00
2017-09-22T08:54:00.680Z,101011.45
2017-09-22T08:56:31.954Z,101009.61
2017-09-22T08:59:03.883Z,101004.54
2017-09-22T09:01:34.989Z,101003.80
2017-09-22T09:04:06.143Z,101009.86
2017-09-22T09:06:37.559Z,101008.39
2017-09-22T09:12:11.006Z,101005.94
2017-09-22T09:14:42.455Z,101004.70
2017-09-22T09:17:13.931Z,101002.63
2017-09-22T09:19:45.017Z,101000.20
2017-09-22T09:22:16.316Z,101001.03
2017-09-22T09:24:47.704Z,100992.51
2017-09-22T09:27:18.817Z,100987.87
2017-09-22T09:29:50.096Z,100985.87
2017-09-22T09:32:21.628Z,100992.95
2017-09-22T09:34:52.714Z,100989.61
2017-09-22T09:37:23.899Z,100988.02
2017-09-22T09:39:55.254Z,100983.70
2017-09-22T09:42:27.052Z,100978.14
2017-09-22T09:44:58.487Z,100977.58
2017-09-22T09:47:31.599Z,100981.09
2017-09-22T09:50:03.700Z,100979.13
2017-09-22T09:52:35.092Z,100983.20
2017-09-22T09:55:06.170Z,100980.81
2017-09-22T09:57:37.528Z,100977.27
2017-09-22T10:00:08.649Z,100983.83
2017-09-22T10:02:39.768Z,100974.30
2017-09-22T10:05:11.468Z,100971.17
2017-09-22T10:07:42.547Z,100973.52
2017-09-22T10:10:13.843Z,100965.89
2017-09-22T10:12:45.256Z,100959.22
2017-09-22T10:15:16.380Z,100960.22
2017-09-22T10:17:47.540Z,100960.38
2017-09-22T10:20:18.968Z,100957.55
2017-09-22T10:22:50.036Z,100950.05
2017-09-22T10:25:21.405Z,100951.41
2017-09-22T10:27:52.603Z,100942.55
2017-09-22T10:30:24.013Z,100945.37
2017-09-22T10:32:55.391Z,100945.17
2017-09-22T10:35:28.042Z,100944.50
2017-09-22T10:37:59.163Z,100948.28
2017-09-22T10:40:30.572Z,100938.48
2017-09-22T10:43:03.404Z,100946.10
2017-09-22T10:45:36.212Z,100942.37
2017-09-22T10:48:07.772Z,100942.32
2017-09-22T10:50:39.198Z,100942.84
2017-09-22T10:53:12.020Z,100938.84
2017-09-22T10:55:43.658Z,100941.22
2017-09-22T10:58:14.821Z,100942.88
2017-09-22T11:00:45.976Z,100948.33
2017-09-22T11:03:17.362Z,100934.95
2017-09-22T11:05:48.502Z,100931.76
2017-09-22T11:08:19.902Z,100926.59
2017-09-22T11:10:51.213Z,100927.92
2017-09-22T11:13:22.549Z,100936.78
2017-09-22T11:15:54.527Z,100933.91
2017-09-22T11:18:25.776Z,100921.73
2017-09-22T11:20:57.488Z,100929.01
2017-09-22T11:23:28.875Z,100925.43
2017-09-22T11:26:00.457Z,100927.19
2017-09-22T11:28:31.797Z,100930.41
2017-09-22T11:31:01.768Z,100928.91
2017-09-22T11:33:32.906Z,100927.14
2017-09-22T11:36:05.467Z,100925.63
2017-09-22T11:38:36.665Z,100921.35
2017-09-22T11:41:08.896Z,100926.91
2017-09-22T11:43:40.169Z,100921.06
2017-09-22T11:46:12.705Z,100916.68
2017-09-22T11:48:44.141Z,100915.52
2017-09-22T11:51:15.538Z,100915.67
2017-09-22T11:53:46.634Z,100910.42
2017-09-22T11:56:18.021Z,100914.24
2017-09-22T11:58:49.097Z,100916.51
2017-09-22T12:01:20.173Z,100915.92
2017-09-22T12:03:51.527Z,100914.90
2017-09-22T12:06:22.683Z,100914.18
2017-09-22T12:08:53.745Z,100908.73
2017-09-22T12:11:25.203Z,100909.66
2017-09-22T12:13:56.261Z,100909.48
2017-09-22T12:16:27.522Z,100903.39
2017-09-22T12:18:58.923Z,100898.42
2017-09-22T12:21:30.106Z,100908.19
2017-09-22T12:24:02.006Z,100915.81
2017-09-22T12:26:33.431Z,100907.69
2017-09-22T12:29:04.903Z,100904.13
2017-09-22T12:31:36.007Z,100915.09
2017-09-22T12:34:07.508Z,100904.66
2017-09-22T12:36:38.714Z,100903.43
2017-09-22T12:39:11.644Z,100902.67
2017-09-22T12:41:43.149Z,100904.72
2017-09-22T12:44:14.714Z,100902.42
2017-09-22T12:46:45.858Z,100898.36
2017-09-22T12:49:18.345Z,100901.66
2017-09-22T12:51:49.437Z,100904.27
2017-09-22T12:54:20.828Z,100897.13
2017-09-22T12:56:51.915Z,100901.69
2017-09-22T12:59:23.027Z,100897.19
2017-09-22T13:01:54.534Z,100898.88
2017-09-22T13:04:25.628Z,100896.14
2017-09-22T13:06:57.088Z,100895.84
2017-09-22T13:09:28.556Z,100894.89
2017-09-22T13:11:59.755Z,100900.69
2017-09-22T13:14:31.183Z,100897.69
2017-09-22T13:17:03.379Z,100901.68
2017-09-22T13:19:34.477Z,100895.55
2017-09-22T13:22:06.132Z,100895.80
2017-09-22T13:24:37.232Z,100894.06
2017-09-22T13:27:08.658Z,100888.95
2017-09-22T13:29:39.980Z,100897.64
2017-09-22T13:32:12.361Z,100894.31
2017-09-22T13:34:43.700Z,100893.36
2017-09-22T13:37:14.852Z,100889.62
2017-09-22T13:39:46.046Z,100891.84
2017-09-22T13:42:17.493Z,100892.86
2017-09-22T13:44:48.582Z,100895.01
2017-09-22T13:47:19.676Z,100891.19
2017-09-22T13:49:51.072Z,100891.64
2017-09-22T13:52:22.121Z,100885.16
2017-09-22T13:54:53.556Z,100888.09
2017-09-22T13:57:24.957Z,100883.31
2017-09-22T13:59:56.330Z,100879.53
2017-09-22T14:02:27.810Z,100874.88
2017-09-22T14:04:58.954Z,100879.83
2017-09-22T14:07:30.153Z,100875.88
2017-09-22T14:10:03.263Z,100878.88
2017-09-22T14:12:34.456Z,100882.98
2017-09-22T14:15:05.614Z,100883.52
2017-09-22T14:17:36.982Z,100878.30
2017-09-22T14:20:08.252Z,100879.36
2017-09-22T14:22:39.367Z,100877.55
2017-09-22T14:25:12.710Z,100877.74
2017-09-22T14:27:43.805Z,100876.48
2017-09-22T14:30:15.060Z,100868.92
2017-09-22T14:32:46.480Z,100873.87
2017-09-22T14:35:17.730Z,100875.00
2017-09-22T14:37:49.081Z,100880.93
2017-09-22T14:40:20.186Z,100875.30
2017-09-22T14:42:51.273Z,100882.75
2017-09-22T14:45:22.638Z,100873.29
2017-09-22T14:47:53.772Z,100874.35
2017-09-22T14:50:24.965Z,100882.84
2017-09-22T14:52:56.415Z,100880.23
2017-09-22T14:55:27.539Z,100891.45
2017-09-22T14:57:58.679Z,100891.33
2017-09-22T15:00:30.077Z,100895.63
2017-09-22T15:03:01.497Z,100890.70
2017-09-22T15:05:32.873Z,100896.38
2017-09-22T15:08:04.846Z,100902.13
2017-09-22T15:10:36.357Z,100900.09
2017-09-22T15:13:08.527Z,100909.42
2017-09-22T15:15:39.639Z,100912.77
2017-09-22T15:18:11.572Z,100919.63
2017-09-22T15:20:42.975Z,100918.64
2017-09-22T15:23:14.858Z,100919.86
2017-09-22T15:25:46.218Z,100928.16
2017-09-22T15:28:17.352Z,100923.89
2017-09-22T15:30:48.451Z,100932.66
2017-09-22T15:33:19.882Z,100934.29
2017-09-22T15:35:51.033Z,100934.84
2017-09-22T15:38:22.222Z,100932.34
2017-09-22T15:40:53.690Z,100933.31
2017-09-22T15:43:24.838Z,100936.02
2017-09-22T15:45:56.268Z,100938.25
2017-09-22T15:48:27.351Z,100937.38
2017-09-22T15:50:58.440Z,100938.75
2017-09-22T15:53:29.844Z,100938.78
2017-09-22T15:56:01.693Z,100941.70
2017-09-22T15:58:32.909Z,100949.95
2017-09-22T16:01:04.662Z,100949.89
2017-09-22T16:03:35.854Z,100947.76
2017-09-22T16:06:10.805Z,100941.11
2017-09-22T16:08:42.159Z,100940.95
2017-09-22T16:11:15.132Z,100945.01
2017-09-22T16:13:47.275Z,100943.86
2017-09-22T16:16:18.668Z,100946.94
2017-09-22T16:18:50.149Z,100943.11
2017-09-22T16:21:21.315Z,100943.34
2017-09-22T16:23:52.431Z,100944.16
2017-09-22T16:26:24.884Z,100952.19
2017-09-22T16:28:56.097Z,100950.09
2017-09-22T16:31:27.217Z,100949.37
2017-09-22T16:33:58.594Z,100946.87
2017-09-22T16:36:29.731Z,100947.67
2017-09-22T16:39:01.273Z,100951.09
2017-09-22T16:41:32.499Z,100952.17
2017-09-22T16:44:06.135Z,100958.34
2017-09-22T16:46:37.645Z,100958.86
2017-09-22T16:49:09.680Z,100958.97
2017-09-22T16:51:40.892Z,100960.09
2017-09-22T16:54:14.593Z,100963.23
2017-09-22T16:56:45.802Z,100960.45
2017-09-22T16:59:17.029Z,100962.48
2017-09-22T17:01:48.667Z,100958.27
2017-09-22T17:04:19.785Z,100958.96
2017-09-22T17:06:51.237Z,100960.11
2017-09-22T17:09:22.716Z,100957.99
2017-09-22T17:11:53.849Z,100963.42
2017-09-22T17:14:25.381Z,100963.45
2017-09-22T17:16:56.698Z,100961.48
2017-09-22T17:19:28.803Z,100964.14
2017-09-22T17:22:00.326Z,100964.91
2017-09-22T17:24:31.558Z,100970.35
2017-09-22T17:27:02.988Z,100972.41
2017-09-22T17:29:34.134Z,100972.81
2017-09-22T17:32:05.947Z,100974.47
2017-09-22T17:34:37.514Z,100973.94
2017-09-22T17:37:09.048Z,100979.27
2017-09-22T17:39:40.183Z,100978.19
2017-09-22T17:42:13.314Z,100978.78
2017-09-22T17:44:44.674Z,100985.38
2017-09-22T17:47:18.481Z,100985.97
2017-09-22T17:49:49.931Z,100989.74
2017-09-22T17:52:21.113Z,100994.94
2017-09-22T17:54:52.254Z,100994.42
2017-09-22T17:57:23.695Z,101002.94
2017-09-22T17:59:54.784Z,100998.46
2017-09-22T18:02:26.305Z,101004.61
2017-09-22T18:04:58.681Z,100998.56
2017-09-22T18:07:29.826Z,100999.75
2017-09-22T18:10:03.567Z,101002.13
2017-09-22T18:12:34.735Z,101004.76
2017-09-22T18:15:06.265Z,101012.38
2017-09-22T18:17:37.860Z,101015.91
2017-09-22T18:20:09.453Z,101018.34
2017-09-22T18:22:40.918Z,101026.11
2017-09-22T18:25:13.190Z,101028.48
2017-09-22T18:27:44.487Z,101033.80
2017-09-22T18:30:15.884Z,101043.38
2017-09-22T18:32:47.031Z,101038.13
2017-09-22T18:35:18.459Z,101040.45
2017-09-22T18:37:49.671Z,101043.02
2017-09-22T18:43:03.791Z,101050.84
2017-09-22T18:45:35.369Z,101048.20
2017-09-22T18:48:06.789Z,101050.94
2017-09-22T18:50:39.315Z,101052.09
2017-09-22T18:53:12.014Z,101052.59
2017-09-22T18:55:43.074Z,101050.04
2017-09-22T18:58:15.504Z,101061.25
2017-09-22T19:00:47.892Z,101055.77
2017-09-22T19:03:19.268Z,101061.25
2017-09-22T19:05:50.340Z,101058.72
2017-09-22T19:08:21.884Z,101062.84
2017-09-22T19:10:53.002Z,101063.40
2017-09-22T19:13:24.383Z,101067.74
2017-09-22T19:15:55.469Z,101065.56
2017-09-22T19:18:27.147Z,101067.29
2017-09-22T19:20:58.266Z,101067.67
2017-09-22T19:23:29.388Z,101072.48
2017-09-22T19:26:00.958Z,101072.53
2017-09-22T19:28:32.110Z,101069.36
2017-09-22T19:31:03.861Z,101079.95
2017-09-22T19:33:35.807Z,101074.37
2017-09-22T19:36:07.010Z,101079.61
2017-09-22T19:38:38.289Z,101080.64
2017-09-22T19:41:13.316Z,101076.52
2017-09-22T19:43:44.546Z,101074.14
2017-09-22T19:46:16.027Z,101074.66
2017-09-22T19:48:47.757Z,101087.70
2017-09-22T19:51:18.881Z,101078.84
2017-09-22T19:53:50.238Z,101082.71
2017-09-22T19:56:21.608Z,101075.84
2017-09-22T19:58:52.847Z,101083.67
2017-09-22T20:01:23.985Z,101091.13
2017-09-22T20:03:55.370Z,101088.59
2017-09-22T20:06:26.476Z,101087.47
2017-09-22T20:08:57.567Z,101091.28
2017-09-22T20:11:28.777Z,101082.22
2017-09-22T20:14:00.127Z,101087.23
2017-09-22T20:16:31.232Z,101091.77
2017-09-22T20:19:03.704Z,101095.50
2017-09-22T20:21:35.143Z,101092.34
2017-09-22T20:24:06.420Z,101099.51
2017-09-22T20:26:37.575Z,101101.73
2017-09-22T20:29:09.137Z,101102.80
2017-09-22T20:31:40.276Z,101107.45
2017-09-22T20:34:13.603Z,101107.03
2017-09-22T20:36:44.702Z,101107.38
2017-09-22T20:39:16.984Z,101111.06
2017-09-22T20:41:48.396Z,101103.63
2017-09-22T20:44:19.701Z,101111.30
2017-09-22T20:46:51.017Z,101114.63
2017-09-22T20:49:25.629Z,101115.89
2017-09-22T20:51:57.939Z,101121.87
2017-09-22T20:54:29.594Z,101119.93
2017-09-22T20:57:08.486Z,101123.73
2017-09-22T21:04:09.402Z,101124.47
2017-09-22T21:06:41.678Z,101145.16
2017-09-22T21:09:13.171Z,101141.48
2017-09-22T21:11:45.205Z,101144.09
2017-09-22T21:14:39.384Z,101141.79
2017-09-22T21:20:49.503Z,101134.67
2017-09-22T21:35:25.753Z,101138.92
2017-09-22T21:47:20.055Z,101144.38
2017-09-22T21:50:24.092Z,101147.87
2017-09-22T21:56:27.593Z,101153.15
2017-09-22T22:06:37.919Z,101153.91
2017-09-22T22:17:06.921Z,101156.68
2017-09-22T22:28:57.642Z,101158.25
2017-09-22T22:31:50.067Z,101153.41
2017-09-22T22:38:07.109Z,101155.95
2017-09-22T22:41:47.524Z,101159.19
2017-09-22T22:44:39.632Z,101154.92
2017-09-22T22:50:46.608Z,101155.03
2017-09-22T22:56:42.919Z,101148.50
2017-09-22T22:59:39.931Z,101155.45
2017-09-22T23:02:13.106Z,101150.61
2017-09-22T23:04:45.200Z,101152.53
2017-09-22T23:10:37.576Z,101155.58
2017-09-22T23:16:13.396Z,101160.30
2017-09-22T23:18:45.461Z,101158.27
2017-09-22T23:21:22.904Z,101167.82
2017-09-22T23:23:54.570Z,101163.56
2017-09-22T23:26:26.516Z,101169.92
2017-09-22T23:28:58.472Z,101167.42
2017-09-22T23:31:30.523Z,101171.05
2017-09-22T23:34:02.957Z,101168.81
2017-09-22T23:36:35.254Z,101172.41
2017-09-22T23:39:13.002Z,101165.03
2017-09-22T23:41:44.588Z,101160.77
2017-09-22T23:44:16.507Z,101171.18
2017-09-22T23:46:48.986Z,101172.23
2017-09-22T23:49:22.275Z,101178.55
2017-09-22T23:51:53.870Z,101185.50
2017-09-22T23:54:25.933Z,101179.72
2017-09-22T23:56:57.854Z,101183.31
2017-09-22T23:59:29.457Z,101185.58
